Terminal Aerodrome Forecast
Issued by NWS

Home | Current Version | Previous Version | Text Only | Print | Product List | Glossary On
Versions: 1 2 3 4 5 6 7 8 9 10 11 12 13 14 15 16 17 18 19 20
000
FTUS43 KGRR 310200 AAA
TAFAZO
TAF AMD
KAZO 310211Z 3102/3124 22006KT 5SM BR SCT025
     FM310700 24005KT 5SM BR BKN025
     FM311000 25004KT 2SM BR OVC010
     FM311500 25006KT 5SM BR BKN020
     FM311800 26007KT P6SM BKN035=

USA.gov is the U.S. government's official web portal to all federal, state and local government web resources and services.